Time;durP1;ratioP1;P1;durP2;ratioP2;P2;SDS_P1;SDS_P2;PMS_P1;PMS_P2;Temp;Humidity;BMP_temperature;BMP_pressure;BME280_temperature;BME280_humidity;BME280_pressure;Samples;Min_cycle;Max_cycle;Signal;HPM_P1;HPM_P2
2022/10/31 00:02:17;;;;;;;0.00;0.00;;;13.40;99.90;;;;;;5080210;28;20471;-83
2022/10/31 00:04:43;;;;;;;0.35;0.30;;;13.40;99.90;;;;;;5097157;28;20083;-84
2022/10/31 00:07:08;;;;;;;0.80;0.10;;;13.30;99.90;;;;;;5080269;28;20134;-83
2022/10/31 00:09:34;;;;;;;0.00;0.00;;;13.30;99.90;;;;;;5097165;28;20046;-84
2022/10/31 00:12:00;;;;;;;0.05;0.05;;;13.20;99.90;;;;;;5097297;28;20493;-83
2022/10/31 00:14:25;;;;;;;0.00;0.00;;;13.30;99.90;;;;;;5097179;28;20096;-83
2022/10/31 00:16:51;;;;;;;0.30;0.30;;;13.30;99.90;;;;;;5096964;28;20078;-83
2022/10/31 00:19:16;;;;;;;0.00;0.00;;;13.30;99.90;;;;;;5097015;28;20084;-84
2022/10/31 00:21:42;;;;;;;0.10;0.10;;;13.20;99.90;;;;;;5096775;28;20044;-84
2022/10/31 00:24:08;;;;;;;0.08;0.05;;;13.20;99.90;;;;;;5096751;28;20036;-84
2022/10/31 00:26:33;;;;;;;0.10;0.00;;;13.20;99.90;;;;;;5080165;28;20048;-83
2022/10/31 00:29:00;;;;;;;0.00;0.00;;;13.20;99.90;;;;;;5080062;28;20395;-84
2022/10/31 00:31:25;;;;;;;0.00;0.00;;;13.20;99.90;;;;;;5096585;28;20395;-83
2022/10/31 00:33:51;;;;;;;0.75;0.60;;;13.20;99.90;;;;;;5097556;28;20040;-83
2022/10/31 00:36:18;;;;;;;0.10;0.10;;;13.20;99.90;;;;;;5080427;28;20121;-83
2022/10/31 00:38:45;;;;;;;0.25;0.10;;;13.10;99.90;;;;;;5080020;28;20044;-83
2022/10/31 00:41:12;;;;;;;0.10;0.10;;;13.10;99.90;;;;;;5079727;28;20051;-83
2022/10/31 00:43:38;;;;;;;0.03;0.03;;;13.10;99.90;;;;;;5079354;28;20415;-84
2022/10/31 00:46:04;;;;;;;0.00;0.00;;;13.10;99.90;;;;;;5096446;28;20048;-83
2022/10/31 00:48:30;;;;;;;1.52;0.00;;;13.10;99.90;;;;;;5079795;28;20522;-83
2022/10/31 00:50:56;;;;;;;0.00;0.00;;;13.10;99.90;;;;;;5096830;28;20044;-83
2022/10/31 00:53:21;;;;;;;0.03;0.03;;;13.10;99.90;;;;;;5096433;28;20458;-83
2022/10/31 00:55:47;;;;;;;0.00;0.00;;;13.10;99.90;;;;;;5096670;28;20043;-83
2022/10/31 00:58:13;;;;;;;0.00;0.00;;;13.00;99.90;;;;;;5079635;28;20047;-83
2022/10/31 01:00:39;;;;;;;0.10;0.00;;;13.00;99.90;;;;;;5096258;28;20051;-83
2022/10/31 01:03:04;;;;;;;0.00;0.00;;;12.90;99.90;;;;;;5079625;28;20047;-83
2022/10/31 01:05:30;;;;;;;0.10;0.10;;;12.90;99.90;;;;;;5079303;28;20429;-83
2022/10/31 01:07:56;;;;;;;0.00;0.00;;;12.90;99.90;;;;;;5096198;28;20073;-83
2022/10/31 01:10:21;;;;;;;0.10;0.03;;;12.90;99.90;;;;;;5095854;28;20178;-83
2022/10/31 01:12:48;;;;;;;0.00;0.00;;;12.90;99.90;;;;;;5096429;28;20072;-83
2022/10/31 01:15:17;;;;;;;0.00;0.00;;;12.90;99.90;;;;;;5078949;28;20052;-83
2022/10/31 01:17:43;;;;;;;0.00;0.00;;;12.90;99.90;;;;;;5096148;28;20044;-83
2022/10/31 01:20:12;;;;;;;0.00;0.00;;;12.90;99.90;;;;;;5095867;28;20055;-83
2022/10/31 01:22:37;;;;;;;0.05;0.00;;;12.80;99.90;;;;;;5095783;28;20036;-84
2022/10/31 01:25:03;;;;;;;0.00;0.00;;;12.80;99.90;;;;;;5079056;28;20383;-83
2022/10/31 01:27:30;;;;;;;0.10;0.10;;;12.80;99.90;;;;;;5079120;28;20040;-83
2022/10/31 01:29:56;;;;;;;0.10;0.10;;;12.80;99.90;;;;;;5095379;28;20543;-83
2022/10/31 01:32:21;;;;;;;0.85;0.55;;;12.60;99.90;;;;;;5095938;28;20091;-83
2022/10/31 01:34:47;;;;;;;0.00;0.00;;;12.70;99.90;;;;;;5079034;28;20062;-83
2022/10/31 01:37:13;;;;;;;0.40;0.28;;;12.60;99.90;;;;;;5079045;28;20478;-83
2022/10/31 01:39:39;;;;;;;0.70;0.25;;;12.50;99.90;;;;;;5078850;28;20104;-83
2022/10/31 01:42:04;;;;;;;0.03;0.03;;;12.60;99.90;;;;;;5078750;28;20044;-83
2022/10/31 01:44:31;;;;;;;0.10;0.10;;;12.60;99.90;;;;;;5094985;28;20056;-83
2022/10/31 01:47:03;;;;;;;3.13;0.45;;;12.60;99.90;;;;;;5094943;28;20052;-83
2022/10/31 01:49:48;;;;;;;0.10;0.05;;;12.50;99.90;;;;;;5095486;28;20080;-83
2022/10/31 01:52:24;;;;;;;1.10;0.30;;;12.50;99.90;;;;;;5078035;28;20079;-83
2022/10/31 01:55:02;;;;;;;0.00;0.00;;;12.50;99.90;;;;;;5095280;28;20134;-83
2022/10/31 01:57:30;;;;;;;2.83;0.35;;;12.50;99.90;;;;;;5077949;28;20061;-83
2022/10/31 02:00:00;;;;;;;0.00;0.00;;;12.50;99.90;;;;;;5078026;28;20500;-83
2022/10/31 02:02:28;;;;;;;0.10;0.05;;;12.40;99.90;;;;;;5077907;28;20410;-83
2022/10/31 02:04:54;;;;;;;0.00;0.00;;;12.50;99.90;;;;;;5094312;28;20529;-83
2022/10/31 02:07:43;;;;;;;0.00;0.00;;;12.40;99.90;;;;;;5094277;28;20052;-83
2022/10/31 02:10:08;;;;;;;0.05;0.05;;;12.40;99.90;;;;;;5094170;28;20082;-83
2022/10/31 02:12:36;;;;;;;3.95;0.32;;;12.50;99.90;;;;;;5077515;28;20083;-83
2022/10/31 02:15:02;;;;;;;0.00;0.00;;;12.40;99.90;;;;;;5077073;28;20400;-83
2022/10/31 02:17:31;;;;;;;0.00;0.00;;;12.40;99.90;;;;;;5076653;28;20433;-83
2022/10/31 02:20:05;;;;;;;0.22;0.00;;;12.40;99.90;;;;;;5094305;28;20048;-83
2022/10/31 02:22:55;;;;;;;0.00;0.00;;;12.40;99.90;;;;;;5094139;28;20048;-83
2022/10/31 02:25:39;;;;;;;0.00;0.00;;;12.40;99.90;;;;;;5077345;28;20040;-83
2022/10/31 02:28:11;;;;;;;0.08;0.08;;;12.30;99.90;;;;;;5076939;28;20101;-83
2022/10/31 02:31:03;;;;;;;0.10;0.08;;;12.30;99.90;;;;;;5094078;28;20130;-83
2022/10/31 02:33:57;;;;;;;0.00;0.00;;;12.30;99.90;;;;;;5077096;28;20044;-83
2022/10/31 02:36:58;;;;;;;0.88;0.55;;;12.30;99.90;;;;;;5093845;28;20044;-83
2022/10/31 02:39:30;;;;;;;0.00;0.00;;;12.30;99.90;;;;;;5077395;28;20411;-83
2022/10/31 02:42:09;;;;;;;0.13;0.00;;;12.20;99.90;;;;;;5076808;28;20174;-83
2022/10/31 02:45:15;;;;;;;0.10;0.10;;;12.20;99.90;;;;;;5076324;28;20102;-82
2022/10/31 02:47:42;;;;;;;0.20;0.20;;;12.20;99.90;;;;;;5035725;28;20562;-83
2022/10/31 02:50:23;;;;;;;0.10;0.10;;;12.10;99.90;;;;;;5035376;28;20113;-83
2022/10/31 02:52:52;;;;;;;0.00;0.00;;;12.10;99.90;;;;;;5035765;28;20057;-83
2022/10/31 02:55:27;;;;;;;0.28;0.28;;;12.10;99.90;;;;;;5036056;28;20067;-83
2022/10/31 02:57:58;;;;;;;0.10;0.00;;;12.10;99.90;;;;;;5035483;28;20048;-83
2022/10/31 03:00:23;;;;;;;0.03;0.03;;;12.10;99.90;;;;;;5035585;28;20092;-83
2022/10/31 03:02:59;;;;;;;0.00;0.00;;;12.10;99.90;;;;;;5035584;28;20107;-82
2022/10/31 03:05:47;;;;;;;0.08;0.08;;;12.10;99.90;;;;;;5035396;28;20092;-82
2022/10/31 03:08:17;;;;;;;0.10;0.00;;;12.10;99.90;;;;;;5036011;28;20131;-83
2022/10/31 03:10:54;;;;;;;0.00;0.00;;;12.10;99.90;;;;;;5034888;28;20045;-83
2022/10/31 03:13:40;;;;;;;0.80;0.25;;;12.00;99.90;;;;;;5035683;28;20052;-83
2022/10/31 03:16:10;;;;;;;0.20;0.20;;;12.00;99.90;;;;;;5035535;28;20051;-83
2022/10/31 03:19:05;;;;;;;0.00;0.00;;;12.00;99.90;;;;;;5035435;28;20148;-83
2022/10/31 03:21:37;;;;;;;;;;;11.80;99.90;;;;;;5034327;28;20148;-83
2022/10/31 03:24:06;;;;;;;0.00;0.00;;;11.90;99.90;;;;;;5028054;28;19927;-83
2022/10/31 03:26:34;;;;;;;0.10;0.00;;;11.90;99.90;;;;;;5092528;28;20487;-83
2022/10/31 03:29:04;;;;;;;0.00;0.00;;;11.80;99.90;;;;;;5076557;28;20048;-83
2022/10/31 03:31:39;;;;;;;1.80;0.20;;;11.80;99.90;;;;;;5076155;28;20109;-83
2022/10/31 03:34:07;;;;;;;0.00;0.00;;;11.80;99.90;;;;;;5076456;28;20517;-83
2022/10/31 03:36:37;;;;;;;0.00;0.00;;;11.80;99.90;;;;;;5092959;28;20484;-83
2022/10/31 03:39:06;;;;;;;1.45;0.22;;;11.80;99.90;;;;;;5093453;28;20395;-83
2022/10/31 03:41:37;;;;;;;0.08;0.05;;;11.70;99.90;;;;;;5092667;28;20352;-83
2022/10/31 03:44:23;;;;;;;0.00;0.00;;;11.80;99.90;;;;;;5075983;28;20109;-83
2022/10/31 03:46:49;;;;;;;0.60;0.60;;;11.80;99.90;;;;;;5076000;28;20553;-83
2022/10/31 03:49:15;;;;;;;0.00;0.00;;;11.70;99.90;;;;;;5092674;28;20085;-83
2022/10/31 03:51:56;;;;;;;0.00;0.00;;;11.70;99.90;;;;;;5075869;28;20503;-83
2022/10/31 03:54:37;;;;;;;0.75;0.20;;;11.70;99.90;;;;;;5092867;28;20505;-83
2022/10/31 03:57:12;;;;;;;0.10;0.10;;;11.70;99.90;;;;;;5093099;28;20091;-83
2022/10/31 03:59:43;;;;;;;0.22;0.22;;;11.70;99.90;;;;;;5076023;28;20059;-83
2022/10/31 04:02:15;;;;;;;0.00;0.00;;;11.70;99.90;;;;;;5075825;28;20059;-83
2022/10/31 04:04:42;;;;;;;0.00;0.00;;;11.80;99.90;;;;;;5092993;28;20056;-83
2022/10/31 04:07:10;;;;;;;0.00;0.00;;;11.60;99.90;;;;;;5075939;28;20055;-83
2022/10/31 04:09:39;;;;;;;0.00;0.00;;;11.60;99.90;;;;;;5092539;28;20079;-83
2022/10/31 04:12:08;;;;;;;0.00;0.00;;;11.60;99.90;;;;;;5092573;28;20051;-83
2022/10/31 04:14:37;;;;;;;0.10;0.08;;;11.60;99.90;;;;;;5076006;28;20044;-83
2022/10/31 04:17:07;;;;;;;0.00;0.00;;;11.50;99.90;;;;;;5076202;28;20048;-83
2022/10/31 04:19:33;;;;;;;0.00;0.00;;;11.50;99.90;;;;;;5092434;28;20052;-83
2022/10/31 04:21:59;;;;;;;0.00;0.00;;;11.40;99.90;;;;;;5075995;28;20047;-83
2022/10/31 04:24:25;;;;;;;0.00;0.00;;;11.40;99.90;;;;;;5075352;28;20499;-83
2022/10/31 04:26:50;;;;;;;0.00;0.00;;;11.30;99.90;;;;;;5075347;28;20060;-83
2022/10/31 04:29:16;;;;;;;0.00;0.00;;;11.30;99.90;;;;;;5075320;28;20040;-83
2022/10/31 04:31:41;;;;;;;0.85;0.00;;;11.30;99.90;;;;;;5092608;28;20436;-83
2022/10/31 04:34:07;;;;;;;0.57;0.38;;;11.20;99.90;;;;;;5092802;28;20125;-83
2022/10/31 04:36:33;;;;;;;0.00;0.00;;;11.30;99.90;;;;;;5075785;28;20044;-83
2022/10/31 04:38:58;;;;;;;0.10;0.10;;;11.20;99.90;;;;;;5076320;28;20430;-83
2022/10/31 04:41:24;;;;;;;0.00;0.00;;;11.20;99.90;;;;;;5079045;28;20506;-83
2022/10/31 04:43:50;;;;;;;1.27;0.40;;;11.20;99.90;;;;;;5095487;28;20085;-83
2022/10/31 04:46:15;;;;;;;0.00;0.00;;;11.10;99.90;;;;;;5078993;28;20100;-83
2022/10/31 04:48:41;;;;;;;0.10;0.00;;;11.10;99.90;;;;;;5079281;28;20087;-83
2022/10/31 04:51:07;;;;;;;1.65;0.20;;;11.10;99.90;;;;;;5078859;28;20482;-83
2022/10/31 04:53:32;;;;;;;0.00;0.00;;;11.10;99.90;;;;;;5078869;28;20054;-83
2022/10/31 04:56:00;;;;;;;0.63;0.32;;;11.10;99.90;;;;;;5078928;28;20116;-83
2022/10/31 04:58:26;;;;;;;0.00;0.00;;;11.00;99.90;;;;;;5095805;28;20044;-83
2022/10/31 05:00:53;;;;;;;0.00;0.00;;;11.00;99.90;;;;;;5078943;28;20063;-82
2022/10/31 05:03:19;;;;;;;0.25;0.25;;;10.90;99.90;;;;;;5095573;28;20144;-83
2022/10/31 05:05:44;;;;;;;0.00;0.00;;;10.90;99.90;;;;;;5078996;28;20091;-83
2022/10/31 05:08:10;;;;;;;0.40;0.20;;;10.80;99.90;;;;;;5095434;28;20051;-83
2022/10/31 05:10:36;;;;;;;0.00;0.00;;;10.80;99.90;;;;;;5078331;28;20048;-83
2022/10/31 05:13:03;;;;;;;0.00;0.00;;;10.80;99.90;;;;;;5078556;28;20044;-83
2022/10/31 05:15:29;;;;;;;0.00;0.00;;;10.80;99.90;;;;;;5078742;28;20048;-83
2022/10/31 05:17:55;;;;;;;0.00;0.00;;;10.80;99.90;;;;;;5095432;28;20052;-83
2022/10/31 05:20:24;;;;;;;0.00;0.00;;;10.70;99.90;;;;;;5095359;28;20043;-83
2022/10/31 05:22:51;;;;;;;0.00;0.00;;;10.70;99.90;;;;;;5078289;28;20094;-83
2022/10/31 05:25:19;;;;;;;0.17;0.17;;;10.70;99.90;;;;;;5078171;28;20052;-83
2022/10/31 05:27:46;;;;;;;0.00;0.00;;;10.60;99.90;;;;;;5078183;28;20052;-84
2022/10/31 05:30:14;;;;;;;0.00;0.00;;;10.60;99.90;;;;;;5077864;28;20087;-83
2022/10/31 05:32:42;;;;;;;0.00;0.00;;;10.50;99.90;;;;;;5094599;28;20056;-83
2022/10/31 05:35:10;;;;;;;1.02;0.25;;;10.50;99.90;;;;;;5094933;28;20051;-83
2022/10/31 05:37:36;;;;;;;0.00;0.00;;;10.50;99.90;;;;;;5094928;28;20044;-83
2022/10/31 05:40:08;;;;;;;0.10;0.10;;;10.30;99.90;;;;;;5077886;28;20151;-83
2022/10/31 05:42:34;;;;;;;0.03;0.03;;;10.30;99.90;;;;;;5094675;28;20117;-83
2022/10/31 05:45:00;;;;;;;0.00;0.00;;;10.30;99.90;;;;;;5094278;28;20491;-83
2022/10/31 05:47:25;;;;;;;0.20;0.10;;;10.20;99.90;;;;;;5077937;28;20047;-83
2022/10/31 05:49:51;;;;;;;0.03;0.00;;;10.10;99.90;;;;;;5077656;28;20048;-83
2022/10/31 05:52:17;;;;;;;0.00;0.00;;;10.10;99.90;;;;;;5094612;28;20399;-83
2022/10/31 05:54:42;;;;;;;0.10;0.05;;;10.00;99.90;;;;;;5078237;28;20044;-83
2022/10/31 05:57:08;;;;;;;0.08;0.03;;;10.00;99.90;;;;;;5090177;28;20050;-83
2022/10/31 05:59:34;;;;;;;0.17;0.17;;;9.90;99.90;;;;;;5076219;28;20048;-83
2022/10/31 06:01:59;;;;;;;0.00;0.00;;;9.90;99.90;;;;;;5074411;28;20541;-83
2022/10/31 06:04:25;;;;;;;0.20;0.20;;;9.80;99.90;;;;;;5074133;28;20036;-83
2022/10/31 06:06:51;;;;;;;0.52;0.28;;;9.80;99.90;;;;;;5057430;28;20052;-83
2022/10/31 06:09:16;;;;;;;0.00;0.00;;;9.80;99.90;;;;;;5057729;28;20032;-83
2022/10/31 06:11:42;;;;;;;0.00;0.00;;;9.70;99.90;;;;;;5074035;28;20044;-84
2022/10/31 06:14:07;;;;;;;0.00;0.00;;;9.50;99.90;;;;;;5073910;28;20036;-84
2022/10/31 06:16:33;;;;;;;0.00;0.00;;;9.50;99.90;;;;;;5057158;28;20055;-84
2022/10/31 06:18:59;;;;;;;0.00;0.00;;;9.40;99.90;;;;;;5073929;28;20044;-84
2022/10/31 06:21:24;;;;;;;0.00;0.00;;;9.30;99.90;;;;;;5057079;28;20572;-84
2022/10/31 06:23:50;;;;;;;0.00;0.00;;;9.30;99.90;;;;;;5057633;28;20097;-84
2022/10/31 06:26:16;;;;;;;0.00;0.00;;;9.20;99.90;;;;;;5073917;28;20040;-84
2022/10/31 06:28:42;;;;;;;0.00;0.00;;;9.30;99.90;;;;;;5073733;28;20040;-83
2022/10/31 06:31:07;;;;;;;0.00;0.00;;;9.30;99.90;;;;;;5088975;28;20490;-83
2022/10/31 06:33:34;;;;;;;0.00;0.00;;;9.30;99.90;;;;;;5093901;28;20422;-83
2022/10/31 06:36:00;;;;;;;0.00;0.00;;;9.30;99.90;;;;;;5093425;28;20062;-83
2022/10/31 06:38:26;;;;;;;0.10;0.10;;;9.20;99.90;;;;;;5076863;28;20399;-83
2022/10/31 06:40:53;;;;;;;0.00;0.00;;;9.20;99.90;;;;;;5093785;28;20058;-83
2022/10/31 06:43:19;;;;;;;1.15;0.30;;;9.20;99.90;;;;;;5076704;28;20510;-83
2022/10/31 06:45:45;;;;;;;0.00;0.00;;;9.20;99.90;;;;;;5093440;28;20056;-83
2022/10/31 06:48:11;;;;;;;0.00;0.00;;;9.10;99.90;;;;;;5093220;28;20140;-83
2022/10/31 06:50:36;;;;;;;0.00;0.00;;;9.10;99.90;;;;;;5076190;28;20048;-83
2022/10/31 06:53:02;;;;;;;0.00;0.00;;;9.10;99.90;;;;;;5093506;28;20044;-83
2022/10/31 06:55:28;;;;;;;0.25;0.10;;;9.00;99.90;;;;;;5093407;28;20044;-83
2022/10/31 06:57:56;;;;;;;0.03;0.03;;;9.00;99.90;;;;;;5093404;28;20040;-83
2022/10/31 07:00:22;;;;;;;0.13;0.13;;;9.10;99.90;;;;;;5076506;28;20051;-83
2022/10/31 07:02:58;;;;;;;0.10;0.10;;;9.10;99.90;;;;;;5092601;28;20392;-83
2022/10/31 07:05:25;;;;;;;0.80;0.30;;;9.10;99.90;;;;;;5093442;28;20462;-83
2022/10/31 07:07:58;;;;;;;0.00;0.00;;;9.10;99.90;;;;;;5093360;28;20510;-83
2022/10/31 07:10:26;;;;;;;0.00;0.00;;;9.10;99.90;;;;;;5093113;28;20479;-83
2022/10/31 07:12:56;;;;;;;0.00;0.00;;;9.10;99.90;;;;;;5093190;28;20094;-83
2022/10/31 07:15:23;;;;;;;0.57;0.15;;;9.10;99.90;;;;;;5075984;28;20407;-83
2022/10/31 07:17:49;;;;;;;0.00;0.00;;;9.10;99.90;;;;;;5076219;28;20090;-82
2022/10/31 07:20:14;;;;;;;0.00;0.00;;;9.10;99.90;;;;;;5077000;28;20435;-83
2022/10/31 07:22:40;;;;;;;0.63;0.32;;;9.10;99.90;;;;;;5093516;28;20388;-83
2022/10/31 07:25:06;;;;;;;0.00;0.00;;;9.10;99.90;;;;;;5076067;28;20075;-83
2022/10/31 07:27:39;;;;;;;0.10;0.10;;;9.10;99.90;;;;;;5093067;28;20044;-83
2022/10/31 07:30:06;;;;;;;0.00;0.00;;;9.10;99.90;;;;;;5092620;28;20075;-83
2022/10/31 07:32:49;;;;;;;0.47;0.47;;;9.10;99.90;;;;;;5093002;28;20097;-83
2022/10/31 07:35:17;;;;;;;0.00;0.00;;;9.10;99.90;;;;;;5093196;28;20039;-83
2022/10/31 07:37:43;;;;;;;0.00;0.00;;;9.20;99.90;;;;;;5076318;28;20059;-83
2022/10/31 07:40:09;;;;;;;0.10;0.10;;;9.30;99.90;;;;;;5075505;28;20430;-83
2022/10/31 07:42:36;;;;;;;0.77;0.30;;;9.20;99.90;;;;;;5092158;28;20047;-83
2022/10/31 07:45:02;;;;;;;0.00;0.00;;;9.30;99.90;;;;;;5091921;28;20503;-83
2022/10/31 07:47:28;;;;;;;1.10;0.55;;;9.40;99.90;;;;;;5076024;28;20059;-83
2022/10/31 07:49:53;;;;;;;0.17;0.17;;;9.50;99.90;;;;;;5075605;28;20395;-83
2022/10/31 07:52:19;;;;;;;0.00;0.00;;;9.60;99.90;;;;;;5092688;28;20102;-84
2022/10/31 07:54:45;;;;;;;0.00;0.00;;;9.70;99.90;;;;;;5092668;28;20042;-84
2022/10/31 07:57:10;;;;;;;0.10;0.10;;;9.80;99.90;;;;;;5075743;28;20048;-83
2022/10/31 07:59:36;;;;;;;0.00;0.00;;;10.00;99.90;;;;;;5092682;28;20135;-83
2022/10/31 08:02:01;;;;;;;0.08;0.08;;;10.10;99.90;;;;;;5093141;28;20145;-83
2022/10/31 08:04:27;;;;;;;5.93;0.70;;;10.30;99.90;;;;;;5075772;28;20043;-83
2022/10/31 08:06:53;;;;;;;0.13;0.13;;;10.50;99.90;;;;;;5075876;28;20522;-83
2022/10/31 08:09:18;;;;;;;0.10;0.10;;;10.70;99.90;;;;;;5075571;28;20044;-83
2022/10/31 08:11:44;;;;;;;0.00;0.00;;;10.90;99.90;;;;;;5092515;28;20082;-83
2022/10/31 08:14:09;;;;;;;0.10;0.00;;;11.10;99.90;;;;;;5093756;28;20060;-83
2022/10/31 08:16:35;;;;;;;0.00;0.00;;;11.20;99.90;;;;;;5096601;28;20426;-83
2022/10/31 08:19:01;;;;;;;0.15;0.00;;;11.30;99.90;;;;;;5096380;28;20043;-83
2022/10/31 08:21:26;;;;;;;0.00;0.00;;;11.50;99.90;;;;;;5096288;28;20177;-83
2022/10/31 08:23:52;;;;;;;0.00;0.00;;;11.60;99.90;;;;;;5096286;28;20075;-83
2022/10/31 08:26:17;;;;;;;0.45;0.10;;;11.70;99.90;;;;;;5079416;28;20139;-83
2022/10/31 08:28:43;;;;;;;0.00;0.00;;;12.00;99.90;;;;;;5079309;28;20060;-83
2022/10/31 08:31:09;;;;;;;0.05;0.05;;;12.40;99.90;;;;;;5079161;28;20051;-83
2022/10/31 08:33:35;;;;;;;0.13;0.10;;;13.00;99.90;;;;;;5079194;28;20048;-83
2022/10/31 08:36:01;;;;;;;0.00;0.00;;;13.90;99.90;;;;;;5096046;28;20369;-83
2022/10/31 08:38:27;;;;;;;0.08;0.08;;;14.70;99.90;;;;;;5095920;28;20399;-83
2022/10/31 08:40:52;;;;;;;0.30;0.25;;;15.40;99.90;;;;;;5095954;28;20052;-83
2022/10/31 08:43:19;;;;;;;0.10;0.10;;;16.30;99.90;;;;;;5095819;28;20079;-82
2022/10/31 08:45:48;;;;;;;0.10;0.10;;;17.10;99.90;;;;;;5095143;28;20048;-83
2022/10/31 08:48:16;;;;;;;0.90;0.10;;;18.00;99.90;;;;;;5096161;28;20400;-83
2022/10/31 08:50:42;;;;;;;0.90;0.30;;;18.70;99.90;;;;;;5095518;28;20048;-83
2022/10/31 08:53:12;;;;;;;0.03;0.03;;;19.30;99.90;;;;;;5095828;28;20484;-83
2022/10/31 08:55:40;;;;;;;0.32;0.20;;;19.40;99.90;;;;;;5095552;28;20080;-83
2022/10/31 08:58:10;;;;;;;0.00;0.00;;;19.20;99.90;;;;;;5096032;28;20047;-83
2022/10/31 09:00:36;;;;;;;0.10;0.00;;;18.70;99.90;;;;;;5096225;28;20060;-83
2022/10/31 09:03:04;;;;;;;0.10;0.10;;;18.10;99.90;;;;;;5093507;28;20049;-83
2022/10/31 09:05:30;;;;;;;0.10;0.03;;;17.50;99.90;;;;;;5065148;28;20040;-83
2022/10/31 09:07:57;;;;;;;0.00;0.00;;;17.10;99.90;;;;;;5095155;28;20067;-83
2022/10/31 09:10:24;;;;;;;1.17;0.63;;;17.30;99.90;;;;;;5081282;28;20044;-83
2022/10/31 09:13:06;;;;;;;0.35;0.13;;;17.80;99.90;;;;;;5075027;28;20052;-83
2022/10/31 09:15:32;;;;;;;0.10;0.10;;;17.70;99.90;;;;;;5075059;28;20052;-83
2022/10/31 09:17:58;;;;;;;0.22;0.22;;;17.30;99.90;;;;;;5074839;28;20127;-83
2022/10/31 09:20:24;;;;;;;0.63;0.10;;;16.80;99.90;;;;;;5080126;28;20135;-83
2022/10/31 09:23:00;;;;;;;0.43;0.43;;;16.50;99.90;;;;;;5057956;28;20044;-84
2022/10/31 09:25:26;;;;;;;0.10;0.10;;;16.20;99.90;;;;;;5058369;28;20139;-83
2022/10/31 09:27:58;;;;;;;0.43;0.10;;;15.80;99.90;;;;;;5092817;28;20040;-84
2022/10/31 09:30:25;;;;;;;0.10;0.10;;;15.50;99.90;;;;;;5095158;28;20036;-83
2022/10/31 09:32:59;;;;;;;0.38;0.10;;;15.30;99.90;;;;;;5078319;28;20139;-83
2022/10/31 09:35:25;;;;;;;2.60;0.73;;;15.10;99.90;;;;;;5094932;28;20138;-83
2022/10/31 09:37:55;;;;;;;0.00;0.00;;;15.10;99.90;;;;;;5077983;28;20076;-83
2022/10/31 09:40:24;;;;;;;0.00;0.00;;;15.00;99.90;;;;;;5094881;28;20044;-83
2022/10/31 09:43:04;;;;;;;0.20;0.20;;;15.10;99.90;;;;;;5077602;28;20504;-83
2022/10/31 09:45:44;;;;;;;0.13;0.13;;;15.10;99.90;;;;;;5094290;28;20052;-83
2022/10/31 09:48:36;;;;;;;0.20;0.20;;;15.20;99.90;;;;;;5094894;28;20134;-83
2022/10/31 09:51:10;;;;;;;0.00;0.00;;;15.20;99.90;;;;;;5094456;28;20036;-83
2022/10/31 09:53:41;;;;;;;1.08;0.80;;;15.40;99.90;;;;;;5077897;28;20036;-83
2022/10/31 09:56:14;;;;;;;0.20;0.10;;;15.30;99.90;;;;;;5095093;28;20044;-82
2022/10/31 09:58:47;;;;;;;0.00;0.00;;;15.30;99.90;;;;;;5077526;28;20056;-83
2022/10/31 10:01:39;;;;;;;0.00;0.00;;;15.20;99.90;;;;;;5077777;28;20051;-82
2022/10/31 10:04:40;;;;;;;1.23;0.52;;;15.30;99.90;;;;;;5077629;28;20040;-82
2022/10/31 10:07:11;;;;;;;0.05;0.05;;;15.30;99.90;;;;;;5020448;28;20061;-83
2022/10/31 10:09:37;;;;;;;0.00;0.00;;;15.30;99.90;;;;;;5036822;28;20057;-82
2022/10/31 10:12:21;;;;;;;0.00;0.00;;;15.40;99.90;;;;;;5036395;28;20136;-83
2022/10/31 10:15:17;;;;;;;0.00;0.00;;;15.40;99.90;;;;;;5036182;28;20041;-83
2022/10/31 10:18:00;;;;;;;0.00;0.00;;;15.60;99.90;;;;;;5036541;28;20060;-82
2022/10/31 10:20:50;;;;;;;0.00;0.00;;;15.80;99.90;;;;;;5035667;28;20061;-82
2022/10/31 10:23:39;;;;;;;0.00;0.00;;;16.00;99.90;;;;;;5036163;28;20048;-82
2022/10/31 10:26:24;;;;;;;1.17;0.52;;;16.20;99.90;;;;;;5036330;28;20045;-83
2022/10/31 10:29:00;;;;;;;0.00;0.00;;;16.10;99.90;;;;;;5035728;28;20055;-83
2022/10/31 10:31:38;;;;;;;0.38;0.32;;;16.00;99.90;;;;;;5036202;28;20147;-83
2022/10/31 10:34:31;;;;;;;0.00;0.00;;;16.00;99.90;;;;;;5020031;28;20053;-83
2022/10/31 10:37:17;;;;;;;0.88;0.65;;;15.90;99.90;;;;;;4976485;28;20054;-83
2022/10/31 10:39:50;;;;;;;0.30;0.00;;;15.80;99.90;;;;;;4960887;28;20058;-83
2022/10/31 10:48:34;;;;;;;0.13;0.13;;;15.60;99.90;;;;;;5015885;28;20172;-83
2022/10/31 10:51:01;;;;;;;0.10;0.10;;;15.50;99.90;;;;;;4976596;28;20137;-83
2022/10/31 10:54:00;;;;;;;0.00;0.00;;;15.60;99.90;;;;;;4976795;28;20062;-83
2022/10/31 10:56:34;;;;;;;0.00;0.00;;;15.60;99.90;;;;;;4960015;28;20054;-83
2022/10/31 10:59:00;;;;;;;0.25;0.10;;;15.60;99.90;;;;;;4976433;28;20062;-84
2022/10/31 11:01:27;;;;;;;0.13;0.13;;;15.60;99.90;;;;;;4976790;28;20054;-83
2022/10/31 11:03:52;;;;;;;0.10;0.10;;;15.60;99.90;;;;;;4976698;28;20088;-83
2022/10/31 11:06:27;;;;;;;0.03;0.03;;;15.60;99.90;;;;;;4976784;28;20137;-83
2022/10/31 11:08:53;;;;;;;0.00;0.00;;;15.60;99.90;;;;;;4976432;28;20486;-83
2022/10/31 11:11:32;;;;;;;0.00;0.00;;;15.60;99.90;;;;;;4976583;28;20100;-83
2022/10/31 11:14:04;;;;;;;0.77;0.05;;;15.60;99.90;;;;;;4997549;28;20053;-83
2022/10/31 11:16:35;;;;;;;0.20;0.13;;;15.70;99.90;;;;;;5015574;28;20650;-82
2022/10/31 11:19:20;;;;;;;0.10;0.10;;;15.70;99.90;;;;;;5015912;28;20042;-83
2022/10/31 11:21:46;;;;;;;0.05;0.00;;;15.70;99.90;;;;;;5016203;28;20054;-83
2022/10/31 11:24:18;;;;;;;0.10;0.10;;;15.70;99.90;;;;;;5015564;28;20057;-83
2022/10/31 11:26:45;;;;;;;0.20;0.10;;;15.60;99.90;;;;;;5001823;28;20045;-83
2022/10/31 11:29:24;;;;;;;0.10;0.10;;;15.60;99.90;;;;;;5093190;28;20040;-83
2022/10/31 11:31:53;;;;;;;0.03;0.03;;;15.60;99.90;;;;;;5093071;28;20059;-83
2022/10/31 11:34:37;;;;;;;0.00;0.00;;;15.60;99.90;;;;;;5093308;28;20044;-83
2022/10/31 11:37:13;;;;;;;0.00;0.00;;;15.60;99.90;;;;;;5076463;28;20048;-83
2022/10/31 11:39:53;;;;;;;0.00;0.00;;;15.60;99.90;;;;;;5076409;28;20381;-84
2022/10/31 11:42:26;;;;;;;0.20;0.20;;;15.70;99.90;;;;;;5059535;28;20059;-84
2022/10/31 11:44:53;;;;;;;0.30;0.30;;;15.70;99.90;;;;;;5072361;28;20052;-84
2022/10/31 11:47:32;;;;;;;0.13;0.13;;;15.70;99.90;;;;;;5056245;28;20044;-83
2022/10/31 11:50:02;;;;;;;0.10;0.00;;;15.80;99.90;;;;;;5060091;28;20517;-83
2022/10/31 11:52:32;;;;;;;0.17;0.17;;;15.80;99.90;;;;;;5076857;28;20049;-83
2022/10/31 11:55:20;;;;;;;0.20;0.20;;;15.80;99.90;;;;;;5076645;28;20045;-84
2022/10/31 11:57:48;;;;;;;0.43;0.22;;;15.80;99.90;;;;;;5076707;28;20049;-86
2022/10/31 12:00:29;;;;;;;0.00;0.00;;;15.80;99.90;;;;;;5076579;28;20049;-87
2022/10/31 12:03:26;;;;;;;0.08;0.00;;;15.80;99.90;;;;;;5059889;28;20396;-83
2022/10/31 12:06:18;;;;;;;0.10;0.03;;;15.80;99.90;;;;;;5076531;28;20047;-84
2022/10/31 12:08:44;;;;;;;0.95;0.20;;;15.70;99.90;;;;;;5002517;28;20544;-84
2022/10/31 12:11:42;;;;;;;0.20;0.15;;;15.80;99.90;;;;;;5018532;28;20061;-83
2022/10/31 12:14:23;;;;;;;1.85;0.55;;;15.80;99.90;;;;;;5018915;28;20049;-84
2022/10/31 12:17:00;;;;;;;0.08;0.08;;;15.80;99.90;;;;;;5018945;28;20054;-83
2022/10/31 12:19:45;;;;;;;0.20;0.20;;;15.80;99.90;;;;;;5018645;28;20061;-83
2022/10/31 12:22:41;;;;;;;0.20;0.20;;;15.80;99.90;;;;;;5018622;28;20049;-83
2022/10/31 12:25:24;;;;;;;0.00;0.00;;;15.90;99.90;;;;;;4960297;28;20105;-84
2022/10/31 12:28:16;;;;;;;0.10;0.10;;;16.00;99.90;;;;;;4960007;28;20590;-83
2022/10/31 12:30:56;;;;;;;0.63;0.20;;;16.00;99.90;;;;;;4959861;28;20073;-84
2022/10/31 12:33:49;;;;;;;0.00;0.00;;;16.20;99.90;;;;;;4960078;28;20058;-84
2022/10/31 12:36:17;;;;;;;0.00;0.00;;;16.40;99.90;;;;;;4959572;28;20090;-84
2022/10/31 12:39:03;;;;;;;0.28;0.20;;;16.50;99.90;;;;;;4959818;28;20055;-84
2022/10/31 12:41:51;;;;;;;0.00;0.00;;;16.70;99.90;;;;;;4902681;29;20060;-84
2022/10/31 12:44:32;;;;;;;0.10;0.10;;;16.70;99.90;;;;;;4902682;29;20059;-84
2022/10/31 12:47:25;;;;;;;0.20;0.10;;;16.80;99.90;;;;;;4865803;29;20053;-83
2022/10/31 12:50:15;;;;;;;0.10;0.10;;;16.70;99.90;;;;;;4880876;29;20092;-83
2022/10/31 12:53:08;;;;;;;1.27;0.38;;;16.70;99.90;;;;;;4865852;29;20072;-84
2022/10/31 12:55:42;;;;;;;0.10;0.10;;;16.70;99.90;;;;;;4865785;29;20061;-83
2022/10/31 12:58:21;;;;;;;0.25;0.25;;;16.70;99.90;;;;;;4865122;29;20055;-84
2022/10/31 13:00:51;;;;;;;0.10;0.10;;;16.80;99.90;;;;;;4864521;29;20520;-84
2022/10/31 13:03:44;;;;;;;0.40;0.25;;;16.90;99.90;;;;;;4952804;28;20491;-84
2022/10/31 13:06:17;;;;;;;0.10;0.10;;;16.90;99.90;;;;;;4943555;28;20069;-83
2022/10/31 13:08:55;;;;;;;1.00;0.10;;;16.90;99.90;;;;;;4943268;28;20046;-84
2022/10/31 13:11:46;;;;;;;0.00;0.00;;;16.90;99.90;;;;;;4959518;28;20503;-84
2022/10/31 13:14:30;;;;;;;0.47;0.10;;;16.90;99.90;;;;;;4959446;28;20053;-84
2022/10/31 13:16:56;;;;;;;0.00;0.00;;;16.80;99.90;;;;;;4943734;28;20078;-83